createdAt,value
2023-03-30T00:01:57.825Z,99147.50
2023-03-30T00:04:27.623Z,99152.50
2023-03-30T00:06:55.051Z,99142.97
2023-03-30T00:09:22.831Z,99152.66
2023-03-30T00:11:50.425Z,99153.63
2023-03-30T00:14:19.705Z,99151.22
2023-03-30T00:16:46.879Z,99149.75
2023-03-30T00:19:14.165Z,99153.97
2023-03-30T00:21:41.477Z,99146.03
2023-03-30T00:24:08.670Z,99152.03
2023-03-30T00:26:36.059Z,99151.22
2023-03-30T00:29:03.544Z,99151.22
2023-03-30T00:31:31.273Z,99154.28
2023-03-30T00:33:58.436Z,99148.13
2023-03-30T00:36:26.144Z,99154.91
2023-03-30T00:38:54.369Z,99153.63
2023-03-30T00:41:23.063Z,99154.78
2023-03-30T00:44:01.159Z,99151.41
2023-03-30T00:46:31.540Z,99149.13
2023-03-30T00:49:04.121Z,99144.75
2023-03-30T00:51:33.121Z,99148.81
2023-03-30T00:54:04.716Z,99148.00
2023-03-30T00:56:32.261Z,99145.22
2023-03-30T00:59:00.948Z,99142.81
2023-03-30T01:01:29.397Z,99143.63
2023-03-30T01:03:59.682Z,99149.47
2023-03-30T01:06:30.222Z,99143.34
2023-03-30T01:08:59.171Z,99135.41
2023-03-30T01:11:29.421Z,99146.53
2023-03-30T01:13:59.440Z,99152.34
2023-03-30T01:16:27.370Z,99150.56
2023-03-30T01:19:02.240Z,99152.69
2023-03-30T01:21:48.982Z,99156.28
2023-03-30T01:24:22.750Z,99154.81
2023-03-30T01:26:49.900Z,99155.31
2023-03-30T01:29:20.587Z,99155.84
2023-03-30T01:32:02.211Z,99157.13
2023-03-30T01:34:49.743Z,99161.34
2023-03-30T01:37:42.550Z,99156.03
2023-03-30T01:40:21.237Z,99171.56
2023-03-30T01:42:48.478Z,99174.28
2023-03-30T01:45:27.451Z,99180.59
2023-03-30T01:47:54.672Z,99179.28
2023-03-30T01:50:33.861Z,99184.94
2023-03-30T01:53:06.386Z,99187.53
2023-03-30T01:55:36.744Z,99185.44
2023-03-30T01:58:14.428Z,99189.66
2023-03-30T02:00:47.549Z,99189.97
2023-03-30T02:03:17.646Z,99192.75
2023-03-30T02:05:47.462Z,99190.63
2023-03-30T02:08:18.732Z,99193.09
2023-03-30T02:10:48.097Z,99205.03
2023-03-30T02:13:16.606Z,99195.97
2023-03-30T02:15:49.981Z,99206.50
2023-03-30T02:18:20.252Z,99210.56
2023-03-30T02:20:48.001Z,99207.66
2023-03-30T02:23:18.555Z,99206.50
2023-03-30T02:25:46.672Z,99211.38
2023-03-30T02:28:14.195Z,99209.28
2023-03-30T02:30:44.366Z,99210.25
2023-03-30T02:33:19.324Z,99220.44
2023-03-30T02:36:10.177Z,99218.50
2023-03-30T02:38:44.510Z,99217.84
2023-03-30T02:41:26.326Z,99224.31
2023-03-30T02:44:03.035Z,99225.28
2023-03-30T02:46:49.984Z,99212.84
2023-03-30T02:49:23.789Z,99220.47
2023-03-30T02:52:06.667Z,99217.72
2023-03-30T02:54:47.435Z,99217.88
2023-03-30T02:57:38.305Z,99221.41
2023-03-30T03:00:29.848Z,99228.06
2023-03-30T03:03:00.416Z,99216.88
2023-03-30T03:05:32.556Z,99228.38
2023-03-30T03:08:15.027Z,99219.00
2023-03-30T03:10:51.878Z,99227.72
2023-03-30T03:13:21.266Z,99233.88
2023-03-30T03:15:49.937Z,99236.47
2023-03-30T03:18:18.792Z,99228.88
2023-03-30T03:20:46.706Z,99232.75
2023-03-30T03:23:14.682Z,99238.84
2023-03-30T03:25:48.439Z,99232.03
2023-03-30T03:28:18.743Z,99237.38
2023-03-30T03:30:49.523Z,99234.78
2023-03-30T03:33:22.052Z,99243.19
2023-03-30T03:36:04.890Z,99243.19
2023-03-30T03:38:34.719Z,99242.88
2023-03-30T03:41:02.736Z,99243.34
2023-03-30T03:43:31.236Z,99242.69
2023-03-30T03:45:58.761Z,99247.38
2023-03-30T03:48:26.480Z,99246.25
2023-03-30T03:50:56.722Z,99249.47
2023-03-30T03:53:25.434Z,99244.63
2023-03-30T03:55:56.084Z,99248.34
2023-03-30T03:58:24.185Z,99258.41
2023-03-30T04:00:51.526Z,99261.47
2023-03-30T04:03:18.748Z,99258.28
2023-03-30T04:05:46.714Z,99273.44
2023-03-30T04:08:14.246Z,99270.06
2023-03-30T04:10:42.012Z,99267.16
2023-03-30T04:13:27.741Z,99282.69
2023-03-30T04:16:15.586Z,99282.31
2023-03-30T04:18:46.233Z,99278.13
2023-03-30T04:21:32.100Z,99281.81
2023-03-30T04:24:12.451Z,99271.19
2023-03-30T04:27:16.983Z,99278.28
2023-03-30T04:30:10.844Z,99275.06
2023-03-30T04:32:41.386Z,99282.69
2023-03-30T04:35:34.732Z,99270.53
2023-03-30T04:38:22.599Z,99283.50
2023-03-30T04:41:05.849Z,99279.28
2023-03-30T04:44:09.932Z,99278.13
2023-03-30T04:46:59.565Z,99280.41
2023-03-30T04:49:45.834Z,99274.09
2023-03-30T04:52:31.536Z,99281.69
2023-03-30T04:55:17.471Z,99279.94
2023-03-30T04:58:11.855Z,99280.91
2023-03-30T05:00:42.106Z,99277.66
2023-03-30T05:03:45.307Z,99268.59
2023-03-30T05:06:44.772Z,99268.91
2023-03-30T05:09:25.009Z,99278.94
2023-03-30T05:12:21.658Z,99273.31
2023-03-30T05:15:12.976Z,99269.41
2023-03-30T05:18:03.782Z,99266.97
2023-03-30T05:21:09.994Z,99273.13
2023-03-30T05:24:15.782Z,99268.91
2023-03-30T05:27:09.655Z,99275.41
2023-03-30T05:29:51.980Z,99282.84
2023-03-30T05:32:38.508Z,99283.81
2023-03-30T05:35:21.617Z,99286.56
2023-03-30T05:38:07.647Z,99285.59
2023-03-30T05:40:51.806Z,99290.59
2023-03-30T05:43:32.982Z,99296.72
2023-03-30T05:46:27.989Z,99300.78
2023-03-30T05:49:14.026Z,99310.97
2023-03-30T05:51:49.506Z,99310.66
2023-03-30T05:54:35.962Z,99308.22
2023-03-30T05:57:26.470Z,99302.22
2023-03-30T06:00:15.708Z,99311.59
2023-03-30T06:02:55.426Z,99302.19
2023-03-30T06:05:24.883Z,99311.22
2023-03-30T06:07:52.512Z,99316.38
2023-03-30T06:10:20.148Z,99321.84
2023-03-30T06:12:48.311Z,99313.72
2023-03-30T06:15:30.369Z,99323.13
2023-03-30T06:18:05.090Z,99325.41
2023-03-30T06:20:35.850Z,99326.72
2023-03-30T06:23:03.676Z,99323.13
2023-03-30T06:25:31.509Z,99323.78
2023-03-30T06:27:58.794Z,99326.00
2023-03-30T06:30:27.377Z,99320.56
2023-03-30T06:32:58.405Z,99319.16
2023-03-30T06:35:51.250Z,99325.91
2023-03-30T06:38:23.086Z,99322.16
2023-03-30T06:40:52.793Z,99317.66
2023-03-30T06:43:23.948Z,99327.91
2023-03-30T06:46:15.149Z,99330.16
2023-03-30T06:48:47.942Z,99325.53
2023-03-30T06:51:50.335Z,99319.56
2023-03-30T06:54:20.398Z,99322.13
2023-03-30T06:56:55.268Z,99323.34
2023-03-30T06:59:23.564Z,99314.91
2023-03-30T07:02:13.846Z,99309.34
2023-03-30T07:04:52.088Z,99318.25
2023-03-30T07:07:31.542Z,99307.91
2023-03-30T07:09:58.908Z,99314.16
2023-03-30T07:12:26.836Z,99314.63
2023-03-30T07:14:54.689Z,99307.81
2023-03-30T07:17:24.365Z,99307.16
2023-03-30T07:19:53.081Z,99318.44
2023-03-30T07:22:20.652Z,99324.94
2023-03-30T07:24:47.990Z,99319.72
2023-03-30T07:27:16.475Z,99320.22
2023-03-30T07:29:43.910Z,99319.16
2023-03-30T07:32:11.330Z,99318.63
2023-03-30T07:34:38.987Z,99314.38
2023-03-30T07:37:07.591Z,99320.78
2023-03-30T07:39:35.356Z,99319.16
2023-03-30T07:42:05.016Z,99319.56
2023-03-30T07:44:32.595Z,99312.06
2023-03-30T07:47:07.009Z,99318.88
2023-03-30T07:49:36.572Z,99320.13
2023-03-30T07:52:04.191Z,99317.06
2023-03-30T07:54:58.283Z,99320.38
2023-03-30T07:57:32.980Z,99324.34
2023-03-30T08:00:01.132Z,99330.16
2023-03-30T08:03:00.295Z,99336.06
2023-03-30T08:05:29.305Z,99336.69
2023-03-30T08:08:13.970Z,99336.81
2023-03-30T08:10:41.354Z,99340.50
2023-03-30T08:13:08.971Z,99350.13
2023-03-30T08:15:36.573Z,99347.81
2023-03-30T08:18:08.272Z,99346.16
2023-03-30T08:20:39.024Z,99343.13
2023-03-30T08:23:06.911Z,99350.06
2023-03-30T08:25:34.578Z,99350.72
2023-03-30T08:28:02.364Z,99346.72
2023-03-30T08:30:29.753Z,99350.38
2023-03-30T08:32:57.118Z,99349.91
2023-03-30T08:35:24.561Z,99349.72
2023-03-30T08:37:52.476Z,99349.72
2023-03-30T08:40:19.956Z,99337.28
2023-03-30T08:43:02.778Z,99343.03
2023-03-30T08:45:40.405Z,99348.91
2023-03-30T08:48:31.220Z,99339.59
2023-03-30T08:51:00.271Z,99350.16
2023-03-30T08:53:29.025Z,99351.81
2023-03-30T08:56:18.239Z,99363.38
2023-03-30T08:58:51.071Z,99341.47
2023-03-30T09:01:18.682Z,99354.09
2023-03-30T09:03:55.949Z,99350.25
2023-03-30T09:06:42.341Z,99348.31
2023-03-30T09:09:14.579Z,99345.13
2023-03-30T09:11:42.195Z,99350.69
2023-03-30T09:14:14.605Z,99355.41
2023-03-30T09:16:51.041Z,99357.56
2023-03-30T09:19:27.804Z,99360.97
2023-03-30T09:21:55.884Z,99358.53
2023-03-30T09:24:27.367Z,99354.16
2023-03-30T09:26:59.052Z,99362.72
2023-03-30T09:29:28.612Z,99373.22
2023-03-30T09:32:16.578Z,99371.44
2023-03-30T09:34:43.992Z,99377.69
2023-03-30T09:37:18.752Z,99373.00
2023-03-30T09:39:46.301Z,99396.25
2023-03-30T09:42:34.213Z,99405.50
2023-03-30T09:45:12.208Z,99392.97
2023-03-30T09:47:40.949Z,99410.13
2023-03-30T09:50:09.918Z,99409.81
2023-03-30T09:52:40.558Z,99411.16
2023-03-30T09:55:26.547Z,99411.13
2023-03-30T09:57:54.781Z,99418.13
2023-03-30T10:00:25.178Z,99412.84
2023-03-30T10:02:59.572Z,99406.63
2023-03-30T10:05:27.923Z,99406.94
2023-03-30T10:07:56.975Z,99416.28
2023-03-30T10:10:29.202Z,99415.03
2023-03-30T10:13:02.355Z,99412.31
2023-03-30T10:15:32.657Z,99421.91
2023-03-30T10:18:16.964Z,99421.00
2023-03-30T10:20:52.025Z,99427.59
2023-03-30T10:23:22.698Z,99404.84
2023-03-30T10:25:50.471Z,99410.19
2023-03-30T10:28:21.690Z,99417.09
2023-03-30T10:30:54.918Z,99415.88
2023-03-30T10:33:23.021Z,99422.88
2023-03-30T10:35:53.517Z,99421.97
2023-03-30T10:38:21.219Z,99427.06
2023-03-30T10:40:50.096Z,99436.31
2023-03-30T10:43:20.018Z,99437.13
2023-03-30T10:45:48.477Z,99441.41
2023-03-30T10:48:34.782Z,99441.19
2023-03-30T10:51:07.815Z,99435.09
2023-03-30T10:54:00.073Z,99448.06
2023-03-30T10:56:44.058Z,99451.00
2023-03-30T10:59:14.339Z,99435.00
2023-03-30T11:01:52.323Z,99438.00
2023-03-30T11:04:24.274Z,99436.97
2023-03-30T11:06:53.626Z,99434.69
2023-03-30T11:09:32.748Z,99442.44
2023-03-30T11:12:16.889Z,99444.63
2023-03-30T11:14:44.173Z,99436.94
2023-03-30T11:17:22.060Z,99440.78
2023-03-30T11:19:51.890Z,99444.53
2023-03-30T11:22:33.455Z,99441.66
2023-03-30T11:25:03.374Z,99432.28
2023-03-30T11:27:34.004Z,99427.50
2023-03-30T11:30:33.738Z,99434.94
2023-03-30T11:33:13.140Z,99434.97
2023-03-30T11:35:43.958Z,99435.03
2023-03-30T11:38:30.025Z,99438.34
2023-03-30T11:41:05.506Z,99443.56
2023-03-30T11:43:33.376Z,99445.50
2023-03-30T11:46:08.874Z,99434.34
2023-03-30T11:48:36.426Z,99429.09
2023-03-30T11:51:12.995Z,99429.31
2023-03-30T11:53:58.024Z,99437.63
2023-03-30T11:56:41.513Z,99433.59
2023-03-30T11:59:47.066Z,99429.38
2023-03-30T12:02:36.713Z,99427.06
2023-03-30T12:05:10.411Z,99430.84
2023-03-30T12:07:53.390Z,99431.47
2023-03-30T12:10:23.794Z,99425.56
2023-03-30T12:12:54.041Z,99438.78
2023-03-30T12:15:26.768Z,99432.22
2023-03-30T12:18:00.664Z,99434.16
2023-03-30T12:20:31.546Z,99434.03
2023-03-30T12:23:02.882Z,99426.81
2023-03-30T12:25:50.307Z,99435.09
2023-03-30T12:28:19.463Z,99434.84
2023-03-30T12:30:53.258Z,99435.13
2023-03-30T12:33:28.449Z,99449.56
2023-03-30T12:35:58.308Z,99439.81
2023-03-30T12:38:38.577Z,99442.19
2023-03-30T12:41:18.634Z,99447.63
2023-03-30T12:43:55.627Z,99448.00
2023-03-30T12:46:31.787Z,99435.50
2023-03-30T12:49:05.991Z,99432.88
2023-03-30T12:51:36.669Z,99438.22
2023-03-30T12:54:04.201Z,99434.66
2023-03-30T12:56:38.089Z,99445.66
2023-03-30T12:59:24.147Z,99441.47
2023-03-30T13:01:51.587Z,99432.69
2023-03-30T13:04:23.722Z,99439.47
2023-03-30T13:06:53.296Z,99439.56
2023-03-30T13:09:22.108Z,99440.84
2023-03-30T13:11:50.162Z,99443.78
2023-03-30T13:14:26.691Z,99439.16
2023-03-30T13:16:53.952Z,99436.47
2023-03-30T13:19:33.697Z,99442.91
2023-03-30T13:22:13.277Z,99438.06
2023-03-30T13:24:54.921Z,99450.13
2023-03-30T13:27:25.789Z,99445.28
2023-03-30T13:29:56.525Z,99447.84
2023-03-30T13:32:32.038Z,99454.66
2023-03-30T13:35:08.975Z,99447.19
2023-03-30T13:37:48.792Z,99448.41
2023-03-30T13:40:48.797Z,99457.69
2023-03-30T13:43:32.158Z,99438.97
2023-03-30T13:46:16.136Z,99447.66
2023-03-30T13:48:50.908Z,99446.03
2023-03-30T13:51:20.902Z,99443.16
2023-03-30T13:53:51.312Z,99438.13
2023-03-30T13:56:19.578Z,99435.50
2023-03-30T13:58:56.025Z,99432.06
2023-03-30T14:01:24.018Z,99436.94
2023-03-30T14:03:56.957Z,99428.94
2023-03-30T14:06:26.776Z,99438.53
2023-03-30T14:09:06.328Z,99456.66
2023-03-30T14:11:39.300Z,99449.22
2023-03-30T14:14:07.059Z,99448.19
2023-03-30T14:16:37.076Z,99444.69
2023-03-30T14:19:12.609Z,99443.34
2023-03-30T14:21:44.021Z,99440.09
2023-03-30T14:24:19.264Z,99439.53
2023-03-30T14:26:47.844Z,99453.19
2023-03-30T14:29:24.623Z,99452.94
2023-03-30T14:32:08.338Z,99455.66
2023-03-30T14:34:41.221Z,99457.81
2023-03-30T14:37:11.580Z,99454.19
2023-03-30T14:39:41.136Z,99464.22
2023-03-30T14:42:16.812Z,99467.31
2023-03-30T14:44:45.729Z,99471.09
2023-03-30T14:47:14.378Z,99472.16
2023-03-30T14:49:47.750Z,99465.66
2023-03-30T14:52:17.929Z,99463.25
2023-03-30T14:54:57.562Z,99474.34
2023-03-30T14:57:30.687Z,99468.91
2023-03-30T15:00:00.049Z,99464.28
2023-03-30T15:02:29.224Z,99471.09
2023-03-30T15:04:57.134Z,99476.50
2023-03-30T15:07:29.548Z,99477.44
2023-03-30T15:09:58.642Z,99482.97
2023-03-30T15:12:28.800Z,99488.66
2023-03-30T15:14:58.174Z,99489.59
2023-03-30T15:17:26.868Z,99490.81
2023-03-30T15:19:56.713Z,99488.41
2023-03-30T15:22:24.140Z,99485.97
2023-03-30T15:24:52.270Z,99488.28
2023-03-30T15:27:19.628Z,99497.47
2023-03-30T15:29:47.577Z,99498.94
2023-03-30T15:32:17.229Z,99504.59
2023-03-30T15:35:16.776Z,99500.66
2023-03-30T15:38:00.741Z,99503.88
2023-03-30T15:40:28.761Z,99495.47
2023-03-30T15:43:14.928Z,99497.22
2023-03-30T15:46:06.194Z,99504.56
2023-03-30T15:48:46.292Z,99506.75
2023-03-30T15:51:27.729Z,99501.03
2023-03-30T15:53:55.830Z,99492.63
2023-03-30T15:56:43.575Z,99493.47
2023-03-30T15:59:19.591Z,99494.28
2023-03-30T16:01:50.075Z,99496.19
2023-03-30T16:04:18.844Z,99498.91
2023-03-30T16:06:47.442Z,99497.53
2023-03-30T16:09:16.265Z,99497.78
2023-03-30T16:11:45.463Z,99497.09
2023-03-30T16:14:14.437Z,99497.53
2023-03-30T16:16:41.835Z,99505.94
2023-03-30T16:19:13.095Z,99504.03
2023-03-30T16:21:41.710Z,99514.56
2023-03-30T16:24:10.855Z,99518.09
2023-03-30T16:26:38.217Z,99521.19
2023-03-30T16:29:06.810Z,99518.56
2023-03-30T16:31:34.798Z,99522.06
2023-03-30T16:34:02.423Z,99517.16
2023-03-30T16:36:30.363Z,99517.72
2023-03-30T16:38:57.793Z,99520.56
2023-03-30T16:41:25.044Z,99536.59
2023-03-30T16:43:52.368Z,99524.66
2023-03-30T16:46:20.460Z,99521.97
2023-03-30T16:48:48.181Z,99528.47
2023-03-30T16:51:15.894Z,99529.16
2023-03-30T16:53:43.389Z,99530.91
2023-03-30T16:56:15.174Z,99525.22
2023-03-30T16:58:42.658Z,99534.66
2023-03-30T17:01:13.529Z,99534.13
2023-03-30T17:03:40.947Z,99532.22
2023-03-30T17:06:08.772Z,99529.34
2023-03-30T17:08:36.415Z,99528.78
2023-03-30T17:11:05.413Z,99520.78
2023-03-30T17:13:32.877Z,99522.69
2023-03-30T17:16:02.855Z,99523.47
2023-03-30T17:18:30.717Z,99520.91
2023-03-30T17:20:59.290Z,99528.88
2023-03-30T17:23:27.849Z,99523.94
2023-03-30T17:25:56.188Z,99534.28
2023-03-30T17:28:27.710Z,99522.91
2023-03-30T17:30:56.519Z,99522.09
2023-03-30T17:33:24.135Z,99519.16
2023-03-30T17:35:54.359Z,99527.41
2023-03-30T17:38:21.987Z,99522.91
2023-03-30T17:40:49.774Z,99527.75
2023-03-30T17:43:17.627Z,99525.97
2023-03-30T17:45:46.564Z,99524.91
2023-03-30T17:48:16.429Z,99532.06
2023-03-30T17:50:46.656Z,99532.41
2023-03-30T17:53:17.422Z,99525.22
2023-03-30T17:55:45.958Z,99508.06
2023-03-30T17:58:18.964Z,99539.69
2023-03-30T18:00:47.142Z,99523.72
2023-03-30T18:03:15.935Z,99524.50
2023-03-30T18:05:44.773Z,99525.22
2023-03-30T18:08:17.489Z,99530.53
2023-03-30T18:10:48.048Z,99538.56
2023-03-30T18:13:16.644Z,99529.97
2023-03-30T18:15:46.257Z,99533.03
2023-03-30T18:18:13.937Z,99525.59
2023-03-30T18:20:42.563Z,99520.69
2023-03-30T18:23:10.775Z,99524.28
2023-03-30T18:25:38.663Z,99522.47
2023-03-30T18:28:11.010Z,99527.63
2023-03-30T18:30:38.473Z,99522.97
2023-03-30T18:33:06.675Z,99523.81
2023-03-30T18:35:35.105Z,99517.56
2023-03-30T18:38:04.586Z,99521.88
2023-03-30T18:40:33.348Z,99512.00
2023-03-30T18:43:01.071Z,99515.88
2023-03-30T18:45:35.993Z,99516.63
2023-03-30T18:48:04.300Z,99508.59
2023-03-30T18:50:36.312Z,99513.72
2023-03-30T18:53:04.727Z,99501.44
2023-03-30T18:55:33.440Z,99499.44
2023-03-30T18:58:02.991Z,99501.88
2023-03-30T19:00:31.671Z,99499.91
2023-03-30T19:02:59.351Z,99506.53
2023-03-30T19:05:27.964Z,99495.16
2023-03-30T19:07:55.959Z,99504.16
2023-03-30T19:10:28.426Z,99492.63
2023-03-30T19:12:56.124Z,99489.13
2023-03-30T19:15:33.716Z,99485.50
2023-03-30T19:18:02.264Z,99492.38
2023-03-30T19:20:31.902Z,99486.31
2023-03-30T19:22:59.320Z,99491.06
2023-03-30T19:25:27.923Z,99481.63
2023-03-30T19:28:03.274Z,99477.88
2023-03-30T19:30:34.377Z,99482.19
2023-03-30T19:33:06.018Z,99480.47
2023-03-30T19:35:33.278Z,99479.28
2023-03-30T19:38:01.075Z,99470.16
2023-03-30T19:40:28.845Z,99475.97
2023-03-30T19:42:56.120Z,99479.00
2023-03-30T19:45:24.026Z,99471.81
2023-03-30T19:47:51.643Z,99468.69
2023-03-30T19:50:19.811Z,99467.91
2023-03-30T19:52:50.124Z,99483.03
2023-03-30T19:55:20.985Z,99472.75
2023-03-30T19:57:48.432Z,99468.25
2023-03-30T20:00:17.384Z,99456.59
2023-03-30T20:02:49.965Z,99453.13
2023-03-30T20:05:18.546Z,99444.63
2023-03-30T20:07:46.500Z,99453.56
2023-03-30T20:10:24.990Z,99445.03
2023-03-30T20:12:52.967Z,99457.03
2023-03-30T20:15:21.290Z,99446.34
2023-03-30T20:17:48.725Z,99448.03
2023-03-30T20:20:23.085Z,99442.31
2023-03-30T20:22:53.621Z,99457.00
2023-03-30T20:25:24.931Z,99461.34
2023-03-30T20:27:53.601Z,99455.41
2023-03-30T20:30:21.643Z,99445.38
2023-03-30T20:33:00.052Z,99446.75
2023-03-30T20:35:32.174Z,99438.28
2023-03-30T20:37:59.510Z,99439.53
2023-03-30T20:40:27.357Z,99428.09
2023-03-30T20:43:03.447Z,99435.09
2023-03-30T20:45:31.752Z,99423.59
2023-03-30T20:48:01.607Z,99428.81
2023-03-30T20:50:29.357Z,99422.91
2023-03-30T20:52:58.897Z,99420.44
2023-03-30T20:55:26.493Z,99419.03
2023-03-30T20:57:53.781Z,99427.13
2023-03-30T21:00:21.072Z,99420.75
2023-03-30T21:02:48.403Z,99423.53
2023-03-30T21:05:15.642Z,99411.53
2023-03-30T21:07:47.202Z,99421.31
2023-03-30T21:10:16.371Z,99412.22
2023-03-30T21:12:43.861Z,99415.34
2023-03-30T21:15:11.601Z,99414.19
2023-03-30T21:17:39.074Z,99407.44
2023-03-30T21:20:09.363Z,99419.31
2023-03-30T21:22:55.313Z,99406.75
2023-03-30T21:25:22.978Z,99398.81
2023-03-30T21:27:50.560Z,99402.31
2023-03-30T21:30:18.028Z,99397.19
2023-03-30T21:32:45.462Z,99399.28
2023-03-30T21:35:14.194Z,99399.69
2023-03-30T21:37:41.572Z,99394.22
2023-03-30T21:40:09.498Z,99399.19
2023-03-30T21:42:36.700Z,99400.72
2023-03-30T21:45:05.073Z,99402.53
2023-03-30T21:47:32.364Z,99407.19
2023-03-30T21:49:59.453Z,99405.06
2023-03-30T21:52:27.290Z,99413.44
2023-03-30T21:54:54.711Z,99402.88
2023-03-30T21:57:22.021Z,99402.53
2023-03-30T21:59:49.272Z,99407.81
2023-03-30T22:02:16.858Z,99399.69
2023-03-30T22:04:44.906Z,99407.34
2023-03-30T22:07:12.040Z,99407.09
2023-03-30T22:09:39.405Z,99390.69
2023-03-30T22:12:07.006Z,99401.50
2023-03-30T22:14:34.664Z,99398.44
2023-03-30T22:17:02.003Z,99388.63
2023-03-30T22:19:32.023Z,99393.25
2023-03-30T22:22:02.746Z,99386.56
2023-03-30T22:24:30.870Z,99390.16
2023-03-30T22:26:58.225Z,99383.28
2023-03-30T22:29:25.405Z,99390.72
2023-03-30T22:31:55.961Z,99385.16
2023-03-30T22:34:23.325Z,99383.56
2023-03-30T22:36:50.622Z,99392.22
2023-03-30T22:39:18.381Z,99393.41
2023-03-30T22:41:46.471Z,99390.13
2023-03-30T22:44:13.910Z,99388.50
2023-03-30T22:46:41.234Z,99388.38
2023-03-30T22:49:10.164Z,99375.13
2023-03-30T22:51:38.373Z,99373.38
2023-03-30T22:54:05.858Z,99373.94
2023-03-30T22:56:33.288Z,99372.06
2023-03-30T22:59:01.484Z,99365.44
2023-03-30T23:01:32.571Z,99372.44
2023-03-30T23:04:00.536Z,99378.63
2023-03-30T23:06:27.766Z,99387.25
2023-03-30T23:08:55.296Z,99381.31
2023-03-30T23:11:22.807Z,99372.81
2023-03-30T23:13:50.062Z,99368.63
2023-03-30T23:16:17.748Z,99364.03
2023-03-30T23:18:45.320Z,99358.94
2023-03-30T23:21:14.190Z,99359.44
2023-03-30T23:23:41.634Z,99354.25
2023-03-30T23:26:10.249Z,99355.78
2023-03-30T23:28:41.957Z,99354.41
2023-03-30T23:31:13.706Z,99348.56
2023-03-30T23:33:41.907Z,99345.72
2023-03-30T23:36:10.433Z,99350.28
2023-03-30T23:38:38.412Z,99350.50
2023-03-30T23:41:06.577Z,99345.16
2023-03-30T23:43:34.127Z,99342.75
2023-03-30T23:46:01.562Z,99339.03
2023-03-30T23:48:29.091Z,99339.28
2023-03-30T23:50:57.014Z,99336.38
2023-03-30T23:53:26.596Z,99330.25
2023-03-30T23:55:54.391Z,99336.00
2023-03-30T23:58:22.302Z,99333.91
